Time;durP1;ratioP1;P1;durP2;ratioP2;P2;SDS_P1;SDS_P2;PMS_P1;PMS_P2;Temp;Humidity;BMP_temperature;BMP_pressure;BME280_temperature;BME280_humidity;BME280_pressure;Samples;Min_cycle;Max_cycle;Signal;HPM_P1;HPM_P2
2020/12/05 00:01:21;;;;;;;6.88;1.33;;;;;;;7.08;100.00;98318.22;5091891;28;20043;-67
2020/12/05 00:03:47;;;;;;;5.85;1.35;;;;;;;7.06;100.00;98316.88;5090401;28;20039;-66
2020/12/05 00:06:12;;;;;;;4.63;0.95;;;;;;;7.04;100.00;98319.06;5091851;28;20036;-67
2020/12/05 00:08:38;;;;;;;4.03;0.90;;;;;;;7.02;100.00;98326.69;5091966;28;20035;-66
2020/12/05 00:11:04;;;;;;;8.15;1.30;;;;;;;7.00;100.00;98324.25;5091889;28;20031;-64
2020/12/05 00:13:29;;;;;;;6.07;1.00;;;;;;;6.98;100.00;98323.72;5091726;28;20462;-68
2020/12/05 00:15:55;;;;;;;7.22;1.05;;;;;;;6.98;100.00;98325.63;5091746;28;20043;-69
2020/12/05 00:18:20;;;;;;;7.25;1.00;;;;;;;6.97;100.00;98334.88;5091511;28;20144;-67
2020/12/05 00:20:46;;;;;;;6.63;1.02;;;;;;;6.94;100.00;98320.78;5091563;28;20046;-65
2020/12/05 00:23:12;;;;;;;9.65;2.40;;;;;;;6.93;100.00;98329.97;5091565;28;20036;-66
2020/12/05 00:25:39;;;;;;;5.72;0.63;;;;;;;6.93;100.00;98329.97;5091609;28;20062;-67
2020/12/05 00:28:05;;;;;;;5.60;1.30;;;;;;;6.92;100.00;98328.34;5091449;28;20047;-66
2020/12/05 00:30:33;;;;;;;10.73;1.08;;;;;;;6.92;100.00;98328.34;5091493;28;20044;-67
2020/12/05 00:33:00;;;;;;;6.80;1.10;;;;;;;6.89;100.00;98334.34;5091397;28;20069;-64
2020/12/05 00:35:26;;;;;;;9.55;1.08;;;;;;;6.89;100.00;98331.63;5091383;28;20047;-65
2020/12/05 00:37:52;;;;;;;9.30;1.73;;;;;;;6.87;100.00;98333.81;5091389;28;20469;-68
2020/12/05 00:40:17;;;;;;;3.70;1.25;;;;;;;6.86;100.00;98340.31;5091614;28;20043;-66
2020/12/05 00:42:43;;;;;;;5.75;1.42;;;;;;;6.85;100.00;98343.31;5091345;28;20042;-68
2020/12/05 00:45:08;;;;;;;9.68;1.75;;;;;;;6.81;100.00;98340.38;5091423;28;20058;-67
2020/12/05 00:47:34;;;;;;;5.43;1.30;;;;;;;6.79;100.00;98337.13;5091230;28;20477;-64
2020/12/05 00:49:59;;;;;;;6.28;1.73;;;;;;;6.76;100.00;98343.06;5091255;28;20035;-65
2020/12/05 00:52:25;;;;;;;10.45;2.03;;;;;;;6.75;100.00;98337.94;5091104;28;20028;-68
2020/12/05 00:54:50;;;;;;;5.85;2.35;;;;;;;6.73;100.00;98346.34;5091368;28;20059;-66
2020/12/05 00:57:16;;;;;;;7.50;2.15;;;;;;;6.71;100.00;98347.72;5091190;28;20055;-67
2020/12/05 00:59:41;;;;;;;6.53;2.13;;;;;;;6.69;100.00;98350.72;5091346;28;20109;-65
2020/12/05 01:02:10;;;;;;;4.53;1.75;;;;;;;6.68;100.00;98353.72;5091118;28;20486;-65
2020/12/05 01:04:36;;;;;;;7.95;1.85;;;;;;;6.66;100.00;98351.28;5091172;28;20387;-68
2020/12/05 01:07:02;;;;;;;9.27;2.35;;;;;;;6.65;100.00;98352.38;5091122;28;20042;-66
2020/12/05 01:09:27;;;;;;;9.02;2.17;;;;;;;6.63;100.00;98357.25;5091085;28;20067;-66
2020/12/05 01:11:53;;;;;;;5.80;2.78;;;;;;;6.61;100.00;98354.03;5091174;28;20032;-67
2020/12/05 01:14:18;;;;;;;5.05;2.22;;;;;;;6.61;100.00;98362.16;5091241;28;20562;-66
2020/12/05 01:16:45;;;;;;;6.70;1.85;;;;;;;6.60;100.00;98363.25;5090997;28;20437;-65
2020/12/05 01:19:11;;;;;;;6.50;1.80;;;;;;;6.58;100.00;98359.97;5090948;28;20059;-68
2020/12/05 01:21:36;;;;;;;9.10;1.95;;;;;;;6.57;100.00;98358.34;5090818;28;20066;-65
2020/12/05 01:24:02;;;;;;;6.28;1.30;;;;;;;6.57;100.00;98355.63;5089638;28;20069;-66
2020/12/05 01:26:28;;;;;;;8.30;1.40;;;;;;;6.57;100.00;98363.78;5090510;28;20055;-64
2020/12/05 01:28:54;;;;;;;11.15;1.63;;;;;;;6.58;100.00;98362.69;5091229;28;20036;-68
2020/12/05 01:31:20;;;;;;;8.45;1.75;;;;;;;6.58;100.00;98360.78;5089763;28;20028;-66
2020/12/05 01:33:45;;;;;;;8.73;2.20;;;;;;;6.59;100.00;98373.25;5090821;28;20063;-68
2020/12/05 01:36:11;;;;;;;10.85;2.72;;;;;;;6.59;100.00;98367.00;5089518;28;20040;-67
2020/12/05 01:38:36;;;;;;;7.28;1.48;;;;;;;6.60;100.00;98365.97;5090735;28;20445;-68
2020/12/05 01:41:02;;;;;;;4.15;1.35;;;;;;;6.60;100.00;98357.81;5090747;28;20043;-67
2020/12/05 01:43:30;;;;;;;8.10;1.17;;;;;;;6.60;100.00;98346.97;5090645;28;20032;-66
2020/12/05 01:45:58;;;;;;;5.93;1.15;;;;;;;6.60;100.00;98341.56;5090708;28;20040;-67
2020/12/05 01:48:24;;;;;;;7.75;1.20;;;;;;;6.60;100.00;98336.13;5090617;28;20032;-65
2020/12/05 01:50:53;;;;;;;6.20;1.27;;;;;;;6.59;100.00;98340.72;5090625;28;20487;-67
2020/12/05 01:53:18;;;;;;;9.65;1.70;;;;;;;6.58;100.00;98343.69;5090596;28;20036;-66
2020/12/05 01:55:46;;;;;;;9.07;1.38;;;;;;;6.57;100.00;98342.91;5090563;28;20036;-66
2020/12/05 01:58:12;;;;;;;9.32;1.30;;;;;;;6.58;100.00;98335.56;5090508;28;20127;-65
2020/12/05 02:00:39;;;;;;;7.07;1.13;;;;;;;6.59;100.00;98346.13;5090678;28;20028;-67
2020/12/05 02:03:05;;;;;;;8.27;1.20;;;;;;;6.61;100.00;98335.03;5091609;28;20036;-66
2020/12/05 02:05:42;;;;;;;10.63;1.40;;;;;;;6.60;100.00;98341.56;5094545;28;20559;-66
2020/12/05 02:08:14;;;;;;;11.88;1.70;;;;;;;6.61;100.00;98351.31;5094252;28;20031;-65
2020/12/05 02:10:46;;;;;;;6.88;1.65;;;;;;;6.61;100.00;98360.25;5094228;28;20050;-65
2020/12/05 02:13:54;;;;;;;7.28;1.63;;;;;;;6.62;100.00;98355.66;5094030;28;20028;-66
2020/12/05 02:16:22;;;;;;;7.57;1.02;;;;;;;6.63;100.00;98362.69;5031479;28;20060;-66
2020/12/05 02:18:51;;;;;;;7.80;1.10;;;;;;;6.67;100.00;98369.19;5031498;28;20037;-68
2020/12/05 02:21:18;;;;;;;9.00;1.10;;;;;;;6.70;100.00;98373.22;5064474;28;20047;-63
2020/12/05 02:23:46;;;;;;;4.35;0.90;;;;;;;6.72;100.00;98371.84;5093918;28;20036;-66
2020/12/05 02:26:12;;;;;;;5.10;0.65;;;;;;;6.76;100.00;98389.19;5094132;28;20139;-68
2020/12/05 02:28:38;;;;;;;3.40;0.63;;;;;;;6.81;100.00;98389.19;5094060;28;20389;-67
2020/12/05 02:31:04;;;;;;;3.60;0.60;;;;;;;6.85;100.00;98398.41;5093741;28;20032;-68
2020/12/05 02:33:29;;;;;;;6.70;1.85;;;;;;;6.89;100.00;98402.16;5093622;28;20262;-66
2020/12/05 02:35:55;;;;;;;4.38;1.20;;;;;;;6.92;100.00;98393.47;5093727;28;20075;-65
2020/12/05 02:38:35;;;;;;;8.23;2.38;;;;;;;6.98;100.00;98401.59;5093657;28;20431;-66
2020/12/05 02:41:01;;;;;;;4.95;0.60;;;;;;;6.97;100.00;98383.69;5093749;28;20040;-66
2020/12/05 02:43:27;;;;;;;3.40;0.55;;;;;;;6.97;100.00;98383.69;5093373;28;20043;-64
2020/12/05 02:45:55;;;;;;;4.63;0.90;;;;;;;6.97;100.00;98383.69;5093749;28;20811;-67
2020/12/05 02:48:21;;;;;;;5.68;0.50;;;;;;;6.94;100.00;98391.31;5093331;28;20493;-64
2020/12/05 02:50:46;;;;;;;2.03;0.30;;;;;;;6.93;100.00;98394.28;5093450;28;20455;-64
2020/12/05 02:53:12;;;;;;;3.35;0.60;;;;;;;6.91;100.00;98397.28;5093383;28;20040;-68
2020/12/05 02:55:37;;;;;;;3.25;0.60;;;;;;;6.91;100.00;98378.28;5093563;28;20064;-68
2020/12/05 02:58:03;;;;;;;8.30;0.90;;;;;;;6.92;100.00;98388.03;5092031;28;20040;-65
2020/12/05 03:00:29;;;;;;;6.00;1.00;;;;;;;6.94;100.00;98388.59;5093305;28;20059;-66
2020/12/05 03:02:54;;;;;;;8.00;1.30;;;;;;;6.96;100.00;98391.03;5093128;28;20028;-65
2020/12/05 03:05:20;;;;;;;7.22;0.95;;;;;;;6.98;100.00;98396.19;5093220;28;20482;-67
2020/12/05 03:07:46;;;;;;;6.15;1.05;;;;;;;6.99;100.00;98393.19;5093054;28;20143;-66
2020/12/05 03:10:14;;;;;;;8.98;1.75;;;;;;;7.01;100.00;98380.16;5093197;28;20043;-65
2020/12/05 03:12:40;;;;;;;8.88;1.40;;;;;;;7.00;100.00;98400.22;5093144;28;20074;-67
2020/12/05 03:15:06;;;;;;;8.40;1.23;;;;;;;7.01;100.00;98391.00;5091992;28;20071;-69
2020/12/05 03:17:31;;;;;;;6.22;1.10;;;;;;;7.01;100.00;98396.44;5092920;28;20071;-66
2020/12/05 03:19:57;;;;;;;12.13;1.45;;;;;;;7.00;100.00;98391.28;5092910;28;20066;-66
2020/12/05 03:22:23;;;;;;;9.98;2.25;;;;;;;6.99;100.00;98400.50;5092796;28;20048;-66
2020/12/05 03:24:48;;;;;;;14.15;2.70;;;;;;;6.99;100.00;98397.78;5092613;28;20081;-67
2020/12/05 03:27:14;;;;;;;13.90;1.67;;;;;;;7.00;100.00;98399.41;5092779;28;20046;-65
2020/12/05 03:29:40;;;;;;;5.43;1.38;;;;;;;6.99;100.00;98403.22;5092812;28;20047;-63
2020/12/05 03:32:14;;;;;;;19.48;1.80;;;;;;;6.97;100.00;98400.78;5092663;28;20032;-66
2020/12/05 03:34:42;;;;;;;8.65;1.40;;;;;;;6.93;100.00;98400.50;5092649;28;20032;-67
2020/12/05 03:37:11;;;;;;;12.18;1.83;;;;;;;6.92;100.00;98398.88;5092498;28;20374;-68
2020/12/05 03:39:37;;;;;;;14.65;2.45;;;;;;;6.89;100.00;98394.03;5092652;28;20036;-66
2020/12/05 03:42:03;;;;;;;13.70;2.15;;;;;;;6.87;100.00;98388.06;5092423;28;20062;-67
2020/12/05 03:44:30;;;;;;;10.05;2.00;;;;;;;6.88;100.00;98402.44;5092635;28;20028;-67
2020/12/05 03:46:56;;;;;;;9.10;1.90;;;;;;;6.83;100.00;98400.56;5092463;28;20454;-64
2020/12/05 03:49:22;;;;;;;19.23;1.70;;;;;;;6.83;100.00;98400.56;5092431;28;20452;-68
2020/12/05 03:51:49;;;;;;;14.32;1.92;;;;;;;6.83;100.00;98411.44;5092301;28;20367;-65
2020/12/05 03:54:15;;;;;;;13.27;2.05;;;;;;;6.83;100.00;98407.91;5091178;28;20462;-64
2020/12/05 03:56:40;;;;;;;14.35;2.42;;;;;;;6.82;100.00;98404.38;5092195;28;20044;-64
2020/12/05 03:59:06;;;;;;;14.20;1.92;;;;;;;6.81;100.00;98408.19;5091070;28;20093;-66
2020/12/05 04:01:32;;;;;;;12.48;1.98;;;;;;;6.82;100.00;98414.41;5092117;28;20478;-65
2020/12/05 04:03:58;;;;;;;10.20;2.33;;;;;;;6.81;100.00;98408.19;5092076;28;20047;-65
2020/12/05 04:06:23;;;;;;;13.60;3.28;;;;;;;6.83;100.00;98413.31;5092278;28;20032;-66
2020/12/05 04:08:49;;;;;;;15.63;2.88;;;;;;;6.83;100.00;98414.13;5092047;28;20039;-64
2020/12/05 04:11:15;;;;;;;16.52;2.17;;;;;;;6.82;100.00;98415.22;5091945;28;20054;-67
2020/12/05 04:13:41;;;;;;;16.13;1.80;;;;;;;6.81;100.00;98410.91;5091862;28;20089;-66
2020/12/05 04:16:06;;;;;;;11.98;2.13;;;;;;;6.81;100.00;98416.31;5090556;28;20043;-67
2020/12/05 04:18:32;;;;;;;16.35;2.22;;;;;;;6.80;100.00;98414.69;5091739;28;20043;-66
2020/12/05 04:20:57;;;;;;;11.77;1.67;;;;;;;6.80;100.00;98414.69;5091864;28;20041;-66
2020/12/05 04:23:23;;;;;;;7.22;2.05;;;;;;;6.79;100.00;98418.50;5091752;28;20059;-64
2020/12/05 04:25:49;;;;;;;11.52;2.25;;;;;;;6.80;100.00;98422.03;5089942;28;20047;-65
2020/12/05 04:28:14;;;;;;;17.98;3.50;;;;;;;6.79;100.00;98421.22;5091630;28;20089;-69
2020/12/05 04:30:40;;;;;;;10.93;2.10;;;;;;;6.80;100.00;98428.25;5092109;28;20474;-66
2020/12/05 04:33:06;;;;;;;9.63;2.05;;;;;;;6.78;100.00;98427.72;5091542;28;20032;-67
2020/12/05 04:35:32;;;;;;;14.32;2.00;;;;;;;6.78;100.00;98430.44;5091930;28;20172;-64
2020/12/05 04:37:57;;;;;;;10.80;2.38;;;;;;;6.76;100.00;98435.31;5091491;28;20043;-67
2020/12/05 04:40:23;;;;;;;24.38;3.53;;;;;;;6.75;100.00;98436.41;5091482;28;20046;-65
2020/12/05 04:42:49;;;;;;;17.52;2.58;;;;;;;6.76;100.00;98427.16;5091223;28;20123;-67
2020/12/05 04:45:16;;;;;;;22.48;3.60;;;;;;;6.75;100.00;98438.28;5091312;28;20040;-67
2020/12/05 04:47:43;;;;;;;18.38;2.78;;;;;;;6.74;100.00;98440.19;5091192;28;20210;-67
2020/12/05 04:50:10;;;;;;;14.73;2.92;;;;;;;6.75;100.00;98447.25;5091380;28;20046;-66
2020/12/05 04:53:06;;;;;;;15.07;2.10;;;;;;;6.76;100.00;98438.00;5091389;28;20500;-66
2020/12/05 04:55:38;;;;;;;14.10;1.98;;;;;;;6.80;100.00;98446.44;5091342;28;20063;-65
2020/12/05 04:58:05;;;;;;;16.02;2.10;;;;;;;6.83;100.00;98440.47;5091051;28;20028;-67
2020/12/05 05:00:31;;;;;;;15.68;2.22;;;;;;;6.88;100.00;98448.56;5091148;28;20077;-67
2020/12/05 05:03:09;;;;;;;12.25;2.28;;;;;;;6.95;100.00;98452.63;5090992;28;20061;-67
2020/12/05 05:05:34;;;;;;;8.30;1.60;;;;;;;7.00;100.00;98448.25;5091400;28;20394;-67
2020/12/05 05:08:00;;;;;;;9.35;1.15;;;;;;;7.07;100.00;98454.19;5091138;28;20036;-67
2020/12/05 05:10:28;;;;;;;11.48;2.08;;;;;;;7.13;100.00;98458.53;5091163;28;20434;-68
2020/12/05 05:13:15;;;;;;;8.20;2.55;;;;;;;7.20;100.00;98461.75;5091093;28;20044;-67
2020/12/05 05:15:42;;;;;;;9.43;1.58;;;;;;;7.22;100.00;98468.50;5091267;28;20032;-65
2020/12/05 05:18:08;;;;;;;10.00;1.73;;;;;;;7.25;100.00;98467.13;5091167;28;20039;-66
2020/12/05 05:20:45;;;;;;;5.13;1.55;;;;;;;7.27;100.00;98475.81;5090937;28;20067;-65
2020/12/05 05:23:12;;;;;;;9.52;1.52;;;;;;;7.29;100.00;98475.53;5090705;28;20032;-64
2020/12/05 05:25:51;;;;;;;5.25;0.98;;;;;;;7.28;100.00;98477.44;5090791;28;20478;-66
2020/12/05 05:28:30;;;;;;;4.13;0.85;;;;;;;7.30;100.00;98475.28;5090887;28;20533;-69
2020/12/05 05:31:12;;;;;;;7.57;1.48;;;;;;;7.32;100.00;98483.97;5090832;28;20035;-66
2020/12/05 05:33:49;;;;;;;7.60;1.55;;;;;;;7.32;100.00;98488.56;5090772;28;20114;-67
2020/12/05 05:36:25;;;;;;;6.68;1.20;;;;;;;7.29;100.00;98494.53;5090778;28;20416;-69
2020/12/05 05:39:01;;;;;;;12.38;1.42;;;;;;;7.28;100.00;98504.59;5092738;28;20028;-65
2020/12/05 05:41:27;;;;;;;6.60;1.25;;;;;;;7.23;100.00;98499.19;5094768;28;20032;-64
2020/12/05 05:44:01;;;;;;;9.10;1.80;;;;;;;7.22;100.00;98503.00;5094615;28;20036;-68
2020/12/05 05:46:42;;;;;;;12.50;1.65;;;;;;;7.20;100.00;98513.31;5094704;28;20043;-69
2020/12/05 05:49:10;;;;;;;9.68;2.33;;;;;;;7.18;100.00;98520.94;5094684;28;20118;-66
2020/12/05 05:51:44;;;;;;;8.05;1.52;;;;;;;7.17;100.00;98519.31;5094429;28;20478;-68
2020/12/05 05:54:22;;;;;;;5.72;1.70;;;;;;;7.17;100.00;98535.59;5094590;28;20105;-67
2020/12/05 05:57:02;;;;;;;7.07;2.08;;;;;;;7.15;100.00;98537.78;5094520;28;20127;-69
2020/12/05 05:59:33;;;;;;;5.70;1.27;;;;;;;7.15;100.00;98537.78;5094602;28;20032;-64
2020/12/05 06:01:59;;;;;;;8.32;1.92;;;;;;;7.11;100.00;98534.78;5094448;28;20054;-66
2020/12/05 06:04:34;;;;;;;8.27;1.38;;;;;;;7.07;100.00;98541.03;5094454;28;20066;-65
2020/12/05 06:07:01;;;;;;;11.13;2.20;;;;;;;7.04;100.00;98536.97;5094751;28;20123;-66
2020/12/05 06:09:40;;;;;;;12.13;1.80;;;;;;;7.02;100.00;98538.34;5094330;28;20036;-65
2020/12/05 06:12:07;;;;;;;9.48;1.67;;;;;;;6.99;100.00;98544.34;5094492;28;20040;-66
2020/12/05 06:14:34;;;;;;;4.70;1.20;;;;;;;6.98;100.00;98548.13;5094312;28;20043;-67
2020/12/05 06:17:00;;;;;;;10.43;2.38;;;;;;;6.95;100.00;98555.75;5092779;28;20134;-66
2020/12/05 06:19:26;;;;;;;8.73;1.70;;;;;;;6.95;100.00;98561.16;5094289;28;20048;-66
2020/12/05 06:21:56;;;;;;;10.52;2.05;;;;;;;6.97;100.00;98557.34;5092669;28;20075;-67
2020/12/05 06:25:00;;;;;;;7.53;1.67;;;;;;;6.94;100.00;98570.41;5094112;28;20123;-66
2020/12/05 06:27:27;;;;;;;8.57;2.10;;;;;;;6.94;100.00;98570.41;5062456;28;20056;-67
2020/12/05 06:29:53;;;;;;;17.45;2.63;;;;;;;6.94;100.00;98575.81;5093904;28;20051;-65
2020/12/05 06:32:44;;;;;;;9.48;1.92;;;;;;;6.94;100.00;98586.69;5093901;28;20115;-63
2020/12/05 06:35:19;;;;;;;6.55;1.60;;;;;;;6.91;100.00;98576.34;5093915;28;20046;-66
2020/12/05 06:37:45;;;;;;;7.00;1.08;;;;;;;6.87;100.00;98564.41;5093754;28;20038;-66
2020/12/05 06:40:11;;;;;;;6.43;1.77;;;;;;;6.86;100.00;98568.22;5093683;28;20052;-65
2020/12/05 06:42:42;;;;;;;3.75;1.10;;;;;;;6.83;100.00;98589.66;5093494;28;20105;-66
2020/12/05 06:45:27;;;;;;;4.63;1.10;;;;;;;6.79;100.00;98588.59;5093916;28;20036;-64
2020/12/05 06:47:54;;;;;;;8.70;1.50;;;;;;;6.79;100.00;98585.88;5093482;28;20028;-64
2020/12/05 06:50:32;;;;;;;5.03;2.22;;;;;;;6.80;100.00;98584.78;5093299;28;20028;-67
2020/12/05 06:52:58;;;;;;;3.97;1.90;;;;;;;6.80;100.00;98591.03;5093567;28;20059;-64
2020/12/05 06:55:34;;;;;;;7.30;2.50;;;;;;;6.82;100.00;98594.28;5093477;28;20072;-65
2020/12/05 06:58:08;;;;;;;9.35;1.83;;;;;;;6.85;100.00;98599.16;5093263;28;20505;-63
2020/12/05 07:00:37;;;;;;;9.55;1.75;;;;;;;6.88;100.00;98612.16;5093361;28;20074;-67
2020/12/05 07:03:09;;;;;;;7.32;2.45;;;;;;;6.89;100.00;98605.66;5093089;28;20042;-66
2020/12/05 07:05:36;;;;;;;7.60;2.05;;;;;;;6.91;100.00;98606.19;5093404;28;20036;-67
2020/12/05 07:08:37;;;;;;;6.38;1.42;;;;;;;6.89;100.00;98611.06;5093065;28;20111;-68
2020/12/05 07:11:16;;;;;;;5.65;1.20;;;;;;;6.85;100.00;98617.31;5093080;28;20039;-65
2020/12/05 07:13:47;;;;;;;4.38;1.77;;;;;;;6.81;100.00;98614.34;5092923;28;20078;-64
2020/12/05 07:16:24;;;;;;;3.33;1.30;;;;;;;6.77;100.00;98618.69;5092942;28;20073;-66
2020/12/05 07:18:52;;;;;;;3.60;1.00;;;;;;;6.75;100.00;98622.75;5093006;28;20042;-64
2020/12/05 07:21:18;;;;;;;3.05;1.00;;;;;;;6.75;100.00;98626.28;5092937;28;20039;-65
2020/12/05 07:23:44;;;;;;;2.33;1.05;;;;;;;6.76;100.00;98627.91;5092801;28;20046;-65
2020/12/05 07:26:11;;;;;;;3.70;1.35;;;;;;;6.76;100.00;98649.59;5092592;28;20078;-64
2020/12/05 07:28:37;;;;;;;5.03;1.90;;;;;;;6.76;100.00;98646.88;5092624;28;20062;-66
2020/12/05 07:31:04;;;;;;;8.85;2.42;;;;;;;6.76;100.00;98649.59;5092688;28;20036;-67
2020/12/05 07:33:33;;;;;;;7.03;3.03;;;;;;;6.75;100.00;98647.97;5091454;28;20042;-66
2020/12/05 07:36:04;;;;;;;6.13;2.20;;;;;;;6.76;100.00;98659.63;5092582;28;20111;-66
2020/12/05 07:38:33;;;;;;;5.95;1.98;;;;;;;6.73;100.00;98661.00;5092467;28;20036;-69
2020/12/05 07:40:59;;;;;;;5.93;2.10;;;;;;;6.72;100.00;98659.38;5092522;28;20024;-65
2020/12/05 07:43:25;;;;;;;4.25;1.98;;;;;;;6.71;100.00;98665.06;5092458;28;20579;-66
2020/12/05 07:45:52;;;;;;;5.03;2.53;;;;;;;6.67;100.00;98662.09;5092379;28;20032;-65
2020/12/05 07:48:21;;;;;;;6.18;2.35;;;;;;;6.67;100.00;98667.50;5092185;28;20504;-68
2020/12/05 07:50:48;;;;;;;9.38;2.50;;;;;;;6.68;100.00;98674.56;5090846;28;20040;-64
2020/12/05 07:53:23;;;;;;;13.75;2.10;;;;;;;6.67;100.00;98694.63;5092172;28;20077;-69
2020/12/05 07:55:49;;;;;;;7.82;2.63;;;;;;;6.68;100.00;98696.25;5092332;28;20040;-65
2020/12/05 07:58:15;;;;;;;6.85;2.35;;;;;;;6.69;100.00;98695.19;5092052;28;20047;-68
2020/12/05 08:00:41;;;;;;;2.70;1.70;;;;;;;6.72;100.00;98702.78;5091603;28;20035;-67
2020/12/05 08:03:21;;;;;;;6.32;2.30;;;;;;;6.77;100.00;98715.50;5091940;28;20040;-65
2020/12/05 08:05:53;;;;;;;6.10;2.30;;;;;;;6.80;100.00;98715.81;5092096;28;20483;-66
2020/12/05 08:08:19;;;;;;;7.68;2.80;;;;;;;6.82;100.00;98721.78;5090436;28;20043;-69
2020/12/05 08:10:46;;;;;;;7.22;2.90;;;;;;;6.83;100.00;98715.28;5091876;28;20046;-67
2020/12/05 08:13:14;;;;;;;8.25;3.15;;;;;;;6.86;100.00;98728.28;5092046;28;20081;-68
2020/12/05 08:15:41;;;;;;;7.50;3.67;;;;;;;6.88;100.00;98733.44;5091924;28;20366;-66
2020/12/05 08:18:07;;;;;;;13.45;3.75;;;;;;;6.89;100.00;98726.94;5091627;28;20485;-65
2020/12/05 08:20:40;;;;;;;10.23;3.97;;;;;;;6.89;100.00;98735.88;5091701;28;20047;-67
2020/12/05 08:23:06;;;;;;;8.43;3.70;;;;;;;6.89;100.00;98730.47;5091584;28;20040;-68
2020/12/05 08:25:33;;;;;;;7.22;3.47;;;;;;;6.90;100.00;98737.50;5091593;28;20058;-66
2020/12/05 08:27:59;;;;;;;7.10;3.20;;;;;;;6.91;100.00;98738.34;5091705;28;20032;-67
2020/12/05 08:30:25;;;;;;;5.82;3.13;;;;;;;6.90;100.00;98736.69;5091820;28;20127;-67
2020/12/05 08:33:03;;;;;;;6.68;2.90;;;;;;;6.90;100.00;98732.09;5091541;28;20066;-65
2020/12/05 08:35:32;;;;;;;7.35;3.38;;;;;;;6.90;100.00;98742.94;5091657;28;20032;-66
2020/12/05 08:38:01;;;;;;;6.88;2.92;;;;;;;6.91;100.00;98750.00;5091443;28;20028;-66
2020/12/05 08:40:28;;;;;;;7.10;2.88;;;;;;;6.91;100.00;98755.44;5091618;28;20056;-67
2020/12/05 08:42:53;;;;;;;17.27;2.53;;;;;;;6.90;100.00;98748.38;5091384;28;20103;-67
2020/12/05 08:45:21;;;;;;;4.75;2.83;;;;;;;6.90;100.00;98753.78;5091565;28;20074;-67
2020/12/05 08:47:53;;;;;;;3.67;2.35;;;;;;;6.90;100.00;98759.22;5090098;28;20036;-64
2020/12/05 08:50:35;;;;;;;7.30;2.70;;;;;;;6.92;100.00;98762.47;5091562;28;20036;-64
2020/12/05 08:53:02;;;;;;;5.53;2.50;;;;;;;6.95;100.00;98769.28;5091330;28;20046;-67
2020/12/05 08:55:31;;;;;;;6.40;2.65;;;;;;;6.99;100.00;98772.28;5091390;28;20032;-64
2020/12/05 08:57:59;;;;;;;2.55;2.00;;;;;;;6.99;100.00;98783.13;5091200;28;20474;-66
2020/12/05 09:00:29;;;;;;;7.35;2.88;;;;;;;6.99;100.00;98788.56;5091265;28;20443;-66
2020/12/05 09:02:55;;;;;;;6.70;2.65;;;;;;;6.99;100.00;98783.13;5091092;28;20482;-65
2020/12/05 09:05:21;;;;;;;8.70;2.90;;;;;;;6.98;100.00;98804.03;5091161;28;20499;-68
2020/12/05 09:08:03;;;;;;;7.38;2.72;;;;;;;6.98;100.00;98805.94;5091141;28;20043;-70
2020/12/05 09:10:29;;;;;;;7.57;2.60;;;;;;;6.99;100.00;98802.13;5091051;28;20032;-68
2020/12/05 09:13:05;;;;;;;5.63;2.67;;;;;;;7.00;100.00;98807.28;5093164;28;20070;-67
2020/12/05 09:15:31;;;;;;;6.35;3.53;;;;;;;7.01;100.00;98813.53;5095542;28;20446;-65
2020/12/05 09:17:57;;;;;;;5.97;2.90;;;;;;;7.01;100.00;98808.09;5095221;28;20063;-65
2020/12/05 09:20:23;;;;;;;10.75;2.90;;;;;;;7.01;100.00;98805.38;5095538;28;20119;-67
2020/12/05 09:22:54;;;;;;;3.80;2.92;;;;;;;7.01;100.00;98808.09;5095097;28;20558;-67
2020/12/05 09:25:35;;;;;;;5.28;3.22;;;;;;;7.02;100.00;98815.16;5095065;28;20043;-67
2020/12/05 09:28:07;;;;;;;4.63;3.60;;;;;;;7.02;100.00;98823.28;5094957;28;20085;-64
2020/12/05 09:30:32;;;;;;;6.18;3.58;;;;;;;7.03;100.00;98824.94;5095028;28;20394;-64
2020/12/05 09:32:58;;;;;;;10.38;4.35;;;;;;;7.02;100.00;98821.41;5094980;28;20029;-66
2020/12/05 09:35:25;;;;;;;12.85;4.28;;;;;;;7.03;100.00;98828.47;5095105;28;20032;-68
2020/12/05 09:37:51;;;;;;;7.32;4.50;;;;;;;7.03;100.00;98835.78;5094833;28;20075;-69
2020/12/05 09:40:19;;;;;;;7.22;3.90;;;;;;;7.02;100.00;98847.72;5093671;28;20035;-66
2020/12/05 09:42:45;;;;;;;7.28;4.78;;;;;;;7.02;100.00;98845.00;5094602;28;20398;-67
2020/12/05 09:45:13;;;;;;;8.73;4.55;;;;;;;7.03;100.00;98849.34;5094813;28;20048;-66
2020/12/05 09:47:40;;;;;;;8.50;5.13;;;;;;;7.04;100.00;98848.25;5094737;28;20046;-67
2020/12/05 09:50:06;;;;;;;6.32;5.28;;;;;;;7.06;100.00;98851.53;5094773;28;20044;-65
2020/12/05 09:52:32;;;;;;;8.93;4.88;;;;;;;7.05;100.00;98848.00;5094753;28;20069;-66
2020/12/05 09:54:58;;;;;;;6.70;5.20;;;;;;;7.07;100.00;98850.44;5094710;28;20054;-64
2020/12/05 09:57:24;;;;;;;10.63;5.80;;;;;;;7.08;100.00;98857.50;5094573;28;20540;-67
2020/12/05 09:59:50;;;;;;;8.30;5.82;;;;;;;7.07;100.00;98861.28;5094624;28;20043;-68
2020/12/05 10:02:15;;;;;;;7.72;4.95;;;;;;;7.06;100.00;98859.66;5094393;28;20035;-67
2020/12/05 10:04:41;;;;;;;5.63;5.05;;;;;;;7.06;100.00;98875.94;5094963;28;20047;-66
2020/12/05 10:07:07;;;;;;;11.20;5.32;;;;;;;7.06;100.00;98873.25;5094391;28;20039;-69
2020/12/05 10:09:33;;;;;;;8.02;5.57;;;;;;;7.06;100.00;98870.53;5094688;28;20119;-64
2020/12/05 10:11:59;;;;;;;4.82;4.30;;;;;;;7.04;100.00;98864.56;5094302;28;20043;-67
2020/12/05 10:14:25;;;;;;;7.18;5.13;;;;;;;7.03;100.00;98871.06;5093143;28;20032;-64
2020/12/05 10:16:50;;;;;;;5.70;4.55;;;;;;;7.02;100.00;98874.88;5094109;28;20025;-68
2020/12/05 10:19:16;;;;;;;7.75;4.15;;;;;;;7.01;100.00;98878.66;5094180;28;20036;-66
2020/12/05 10:21:49;;;;;;;9.20;4.00;;;;;;;7.02;100.00;98883.00;5094107;28;20067;-67
2020/12/05 10:24:16;;;;;;;6.97;3.83;;;;;;;7.00;100.00;98890.59;5093473;28;20055;-65
2020/12/05 10:26:49;;;;;;;5.13;3.70;;;;;;;6.98;100.00;98890.06;5093855;28;20186;-66
2020/12/05 10:29:14;;;;;;;6.20;3.67;;;;;;;6.99;100.00;98888.97;5094087;28;20111;-69
2020/12/05 10:31:44;;;;;;;5.00;3.80;;;;;;;7.01;100.00;98889.50;5093957;28;20378;-68
2020/12/05 10:34:10;;;;;;;3.55;3.13;;;;;;;7.02;100.00;98891.16;5093966;28;20036;-68
2020/12/05 10:36:36;;;;;;;4.10;2.92;;;;;;;7.00;100.00;98890.59;5093731;28;20047;-68
2020/12/05 10:39:02;;;;;;;6.68;3.50;;;;;;;7.01;100.00;98900.38;5093840;28;20134;-68
2020/12/05 10:41:28;;;;;;;4.72;3.22;;;;;;;7.01;100.00;98901.19;5093742;28;20506;-66
2020/12/05 10:43:53;;;;;;;6.35;3.50;;;;;;;6.99;100.00;98886.25;5093786;28;20044;-66
2020/12/05 10:46:19;;;;;;;5.47;3.72;;;;;;;6.99;100.00;98897.13;5092320;28;20154;-67
2020/12/05 10:48:44;;;;;;;3.95;3.28;;;;;;;6.97;100.00;98893.84;5093818;28;20028;-66
2020/12/05 10:51:10;;;;;;;4.47;3.40;;;;;;;6.97;100.00;98902.00;5092438;28;20043;-69
2020/12/05 10:53:36;;;;;;;4.85;2.83;;;;;;;6.98;100.00;98900.91;5093317;28;20058;-67
2020/12/05 10:56:01;;;;;;;4.47;2.25;;;;;;;6.99;100.00;98902.53;5093390;28;20043;-66
2020/12/05 10:58:27;;;;;;;4.53;2.90;;;;;;;6.99;100.00;98891.69;5093247;28;20467;-68
2020/12/05 11:00:53;;;;;;;3.88;2.95;;;;;;;7.02;100.00;98893.84;5093362;28;20070;-65
2020/12/05 11:03:18;;;;;;;5.45;2.35;;;;;;;7.06;100.00;98886.81;5091803;28;20059;-68
2020/12/05 11:05:44;;;;;;;5.50;2.20;;;;;;;7.04;100.00;98880.84;5093293;28;20069;-65
2020/12/05 11:08:10;;;;;;;3.03;2.40;;;;;;;7.06;100.00;98884.91;5093032;28;20264;-67
2020/12/05 11:10:35;;;;;;;4.90;2.17;;;;;;;7.07;100.00;98888.44;5092984;28;20043;-66
2020/12/05 11:13:01;;;;;;;3.10;2.55;;;;;;;7.12;100.00;98874.91;5091748;28;20490;-67
2020/12/05 11:15:26;;;;;;;3.53;2.20;;;;;;;7.13;100.00;98888.22;5093059;28;20047;-66
2020/12/05 11:17:52;;;;;;;3.17;2.30;;;;;;;7.14;100.00;98895.25;5093001;28;20044;-66
2020/12/05 11:20:20;;;;;;;4.30;2.38;;;;;;;7.13;100.00;98898.25;5093053;28;20048;-68
2020/12/05 11:22:45;;;;;;;2.60;2.10;;;;;;;7.08;100.00;98893.59;5092774;28;20047;-65
2020/12/05 11:25:13;;;;;;;4.60;2.38;;;;;;;7.07;100.00;98888.44;5092602;28;20032;-64
2020/12/05 11:27:39;;;;;;;3.45;2.03;;;;;;;7.05;100.00;98898.75;5092617;28;20074;-67
2020/12/05 11:30:05;;;;;;;5.13;2.00;;;;;;;7.02;100.00;98896.56;5092670;28;20050;-65
2020/12/05 11:32:30;;;;;;;3.60;2.35;;;;;;;7.02;100.00;98902.00;5092908;28;20040;-65
2020/12/05 11:34:56;;;;;;;4.00;1.95;;;;;;;6.97;100.00;98902.81;5092515;28;20899;-67
2020/12/05 11:37:22;;;;;;;3.90;1.63;;;;;;;6.97;100.00;98910.13;5091721;28;20169;-66